METAR Data
IDs: Format: Raw Decoded Include TAF

Data at: 0205 UTC 01 Mar 2021

VTBD 010130Z 11007KT 5000 BR NSC 26/24 Q1013 NOSIG